sensor_id;sensor_type;location;lat;lon;timestamp;pressure;altitude;pressure_sealevel;temperature;humidity
61026;BME280;46911;32.650;-16.902;2023-02-23T00:00:04;101832.66;;;14.77;65.58
61026;BME280;46911;32.650;-16.902;2023-02-23T00:02:20;101849.66;;;14.90;65.43
61026;BME280;46911;32.650;-16.902;2023-02-23T00:04:23;101832.09;;;14.84;63.89
61026;BME280;46911;32.650;-16.902;2023-02-23T00:06:29;101852.03;;;15.07;62.26
61026;BME280;46911;32.650;-16.902;2023-02-23T00:08:33;101843.66;;;14.99;62.12
61026;BME280;46911;32.650;-16.902;2023-02-23T00:10:38;101789.31;;;14.68;62.44
61026;BME280;46911;32.650;-16.902;2023-02-23T00:12:40;101816.09;;;14.83;62.28
61026;BME280;46911;32.650;-16.902;2023-02-23T00:14:41;101806.84;;;14.87;62.76
61026;BME280;46911;32.650;-16.902;2023-02-23T00:16:47;101817.53;;;14.88;62.95
61026;BME280;46911;32.650;-16.902;2023-02-23T00:18:55;101803.84;;;14.79;62.53
61026;BME280;46911;32.650;-16.902;2023-02-23T00:20:59;101815.13;;;14.84;62.24
61026;BME280;46911;32.650;-16.902;2023-02-23T00:23:00;101811.72;;;14.82;62.22
61026;BME280;46911;32.650;-16.902;2023-02-23T00:25:01;101793.84;;;14.68;62.45
61026;BME280;46911;32.650;-16.902;2023-02-23T00:27:06;101796.53;;;14.68;62.74
61026;BME280;46911;32.650;-16.902;2023-02-23T00:29:17;101810.28;;;14.76;62.73
61026;BME280;46911;32.650;-16.902;2023-02-23T00:31:19;101784.56;;;14.59;62.59
61026;BME280;46911;32.650;-16.902;2023-02-23T00:33:31;101774.56;;;14.61;62.15
61026;BME280;46911;32.650;-16.902;2023-02-23T00:35:34;101754.03;;;14.47;62.01
61026;BME280;46911;32.650;-16.902;2023-02-23T00:37:36;101795.13;;;14.75;61.88
61026;BME280;46911;32.650;-16.902;2023-02-23T00:39:41;101785.13;;;14.64;62.28
61026;BME280;46911;32.650;-16.902;2023-02-23T00:41:42;101786.63;;;14.68;61.90
61026;BME280;46911;32.650;-16.902;2023-02-23T00:43:46;101780.53;;;14.66;61.65
61026;BME280;46911;32.650;-16.902;2023-02-23T00:45:47;101781.91;;;14.72;61.35
61026;BME280;46911;32.650;-16.902;2023-02-23T00:47:48;101779.66;;;14.79;60.44
61026;BME280;46911;32.650;-16.902;2023-02-23T00:49:49;101784.19;;;14.91;60.40
61026;BME280;46911;32.650;-16.902;2023-02-23T00:51:52;101775.63;;;14.86;60.24
61026;BME280;46911;32.650;-16.902;2023-02-23T00:53:53;101767.00;;;14.81;60.33
61026;BME280;46911;32.650;-16.902;2023-02-23T00:55:59;101784.28;;;14.89;60.46
61026;BME280;46911;32.650;-16.902;2023-02-23T00:58:06;101761.41;;;14.84;59.23
61026;BME280;46911;32.650;-16.902;2023-02-23T01:00:12;101769.91;;;14.90;59.63
61026;BME280;46911;32.650;-16.902;2023-02-23T01:02:20;101755.31;;;14.82;59.51
61026;BME280;46911;32.650;-16.902;2023-02-23T01:04:23;101740.00;;;14.69;59.99
61026;BME280;46911;32.650;-16.902;2023-02-23T01:06:24;101732.63;;;14.73;59.13
61026;BME280;46911;32.650;-16.902;2023-02-23T01:08:25;101737.78;;;14.89;59.02
61026;BME280;46911;32.650;-16.902;2023-02-23T01:10:27;101748.53;;;14.89;58.94
61026;BME280;46911;32.650;-16.902;2023-02-23T01:12:28;101743.56;;;14.83;58.94
61026;BME280;46911;32.650;-16.902;2023-02-23T01:14:35;101720.47;;;14.67;58.80
61026;BME280;46911;32.650;-16.902;2023-02-23T01:16:38;101735.41;;;14.71;58.80
61026;BME280;46911;32.650;-16.902;2023-02-23T01:18:43;101728.72;;;14.64;59.43
61026;BME280;46911;32.650;-16.902;2023-02-23T01:20:45;101742.50;;;14.72;60.19
61026;BME280;46911;32.650;-16.902;2023-02-23T01:22:48;101735.13;;;14.62;60.46
61026;BME280;46911;32.650;-16.902;2023-02-23T01:24:51;101732.13;;;14.53;60.74
61026;BME280;46911;32.650;-16.902;2023-02-23T01:26:55;101734.69;;;14.55;61.33
61026;BME280;46911;32.650;-16.902;2023-02-23T01:28:58;101749.13;;;14.67;61.68
61026;BME280;46911;32.650;-16.902;2023-02-23T01:31:07;101744.00;;;14.64;61.63
61026;BME280;46911;32.650;-16.902;2023-02-23T01:33:10;101752.69;;;14.67;61.71
61026;BME280;46911;32.650;-16.902;2023-02-23T01:35:17;101729.50;;;14.66;61.22
61026;BME280;46911;32.650;-16.902;2023-02-23T01:37:20;101729.94;;;14.73;61.22
61026;BME280;46911;32.650;-16.902;2023-02-23T01:39:24;101738.00;;;14.86;60.90
61026;BME280;46911;32.650;-16.902;2023-02-23T01:41:29;101742.38;;;14.87;61.07
61026;BME280;46911;32.650;-16.902;2023-02-23T01:43:52;101736.28;;;14.85;61.38
61026;BME280;46911;32.650;-16.902;2023-02-23T01:45:54;101726.16;;;14.76;61.73
61026;BME280;46911;32.650;-16.902;2023-02-23T01:48:01;101732.19;;;14.79;61.09
61026;BME280;46911;32.650;-16.902;2023-02-23T01:50:11;101722.84;;;14.85;61.01
61026;BME280;46911;32.650;-16.902;2023-02-23T01:52:18;101733.91;;;14.93;60.57
61026;BME280;46911;32.650;-16.902;2023-02-23T01:54:23;101691.03;;;14.79;60.76
61026;BME280;46911;32.650;-16.902;2023-02-23T01:56:30;101705.41;;;14.78;61.44
61026;BME280;46911;32.650;-16.902;2023-02-23T01:58:36;101724.34;;;14.89;61.27
61026;BME280;46911;32.650;-16.902;2023-02-23T02:00:38;101723.69;;;14.85;61.29
61026;BME280;46911;32.650;-16.902;2023-02-23T02:02:43;101715.22;;;14.79;61.55
61026;BME280;46911;32.650;-16.902;2023-02-23T02:04:44;101716.50;;;14.73;61.67
61026;BME280;46911;32.650;-16.902;2023-02-23T02:06:47;101691.00;;;14.53;61.88
61026;BME280;46911;32.650;-16.902;2023-02-23T02:08:59;101687.66;;;14.49;62.14
61026;BME280;46911;32.650;-16.902;2023-02-23T02:11:08;101700.88;;;14.39;62.40
61026;BME280;46911;32.650;-16.902;2023-02-23T02:13:28;101697.09;;;14.29;62.74
61026;BME280;46911;32.650;-16.902;2023-02-23T02:15:32;101689.81;;;14.31;62.54
61026;BME280;46911;32.650;-16.902;2023-02-23T02:23:31;101718.34;;;14.32;62.91
61026;BME280;46911;32.650;-16.902;2023-02-23T02:25:54;101686.13;;;14.19;63.29
61026;BME280;46911;32.650;-16.902;2023-02-23T02:37:48;101688.81;;;13.92;64.38
61026;BME280;46911;32.650;-16.902;2023-02-23T02:42:33;101652.38;;;13.62;65.00
61026;BME280;46911;32.650;-16.902;2023-02-23T02:44:59;101669.22;;;13.64;64.72
61026;BME280;46911;32.650;-16.902;2023-02-23T02:47:11;101651.31;;;13.37;64.94
61026;BME280;46911;32.650;-16.902;2023-02-23T02:49:34;101664.19;;;13.45;65.22
61026;BME280;46911;32.650;-16.902;2023-02-23T02:54:13;101658.66;;;13.34;65.94
61026;BME280;46911;32.650;-16.902;2023-02-23T02:56:24;101669.66;;;13.44;65.76
61026;BME280;46911;32.650;-16.902;2023-02-23T02:58:33;101651.31;;;13.37;65.82
61026;BME280;46911;32.650;-16.902;2023-02-23T03:00:45;101641.06;;;13.44;65.70
61026;BME280;46911;32.650;-16.902;2023-02-23T03:03:05;101636.88;;;13.53;65.39
61026;BME280;46911;32.650;-16.902;2023-02-23T03:05:40;101624.34;;;13.53;64.68
61026;BME280;46911;32.650;-16.902;2023-02-23T03:08:37;101668.53;;;13.88;64.60
61026;BME280;46911;32.650;-16.902;2023-02-23T03:11:01;101666.19;;;13.96;64.12
61026;BME280;46911;32.650;-16.902;2023-02-23T03:16:16;101644.34;;;14.02;63.74
61026;BME280;46911;32.650;-16.902;2023-02-23T03:21:47;101653.59;;;14.24;62.61
61026;BME280;46911;32.650;-16.902;2023-02-23T03:24:33;101655.03;;;14.30;62.50
61026;BME280;46911;32.650;-16.902;2023-02-23T03:26:59;101650.28;;;14.33;61.97
61026;BME280;46911;32.650;-16.902;2023-02-23T03:30:02;101645.78;;;14.47;61.16
61026;BME280;46911;32.650;-16.902;2023-02-23T03:32:30;101637.63;;;14.35;61.45
61026;BME280;46911;32.650;-16.902;2023-02-23T03:35:03;101636.13;;;14.44;61.65
61026;BME280;46911;32.650;-16.902;2023-02-23T03:40:19;101632.59;;;14.44;61.36
61026;BME280;46911;32.650;-16.902;2023-02-23T03:42:42;101637.19;;;14.42;61.55
61026;BME280;46911;32.650;-16.902;2023-02-23T03:45:08;101625.81;;;14.38;61.39
61026;BME280;46911;32.650;-16.902;2023-02-23T03:47:32;101607.88;;;14.26;61.42
61026;BME280;46911;32.650;-16.902;2023-02-23T03:49:55;101607.88;;;14.26;61.65
61026;BME280;46911;32.650;-16.902;2023-02-23T03:52:20;101590.72;;;14.15;61.91
61026;BME280;46911;32.650;-16.902;2023-02-23T03:54:59;101603.78;;;14.20;62.16
61026;BME280;46911;32.650;-16.902;2023-02-23T03:57:24;101598.75;;;14.15;62.37
61026;BME280;46911;32.650;-16.902;2023-02-23T03:59:54;101592.41;;;14.03;62.78
61026;BME280;46911;32.650;-16.902;2023-02-23T04:02:18;101616.34;;;14.06;62.88
61026;BME280;46911;32.650;-16.902;2023-02-23T04:04:39;101590.56;;;13.91;62.86
61026;BME280;46911;32.650;-16.902;2023-02-23T04:07:04;101616.22;;;13.95;63.30
61026;BME280;46911;32.650;-16.902;2023-02-23T04:09:25;101595.91;;;13.78;63.60
61026;BME280;46911;32.650;-16.902;2023-02-23T04:12:03;101611.59;;;13.84;63.75
61026;BME280;46911;32.650;-16.902;2023-02-23T04:16:44;101610.59;;;13.72;64.49
61026;BME280;46911;32.650;-16.902;2023-02-23T04:18:46;101601.59;;;13.73;64.93
61026;BME280;46911;32.650;-16.902;2023-02-23T04:20:50;101597.38;;;13.69;65.13
61026;BME280;46911;32.650;-16.902;2023-02-23T04:22:55;101583.06;;;13.56;65.39
61026;BME280;46911;32.650;-16.902;2023-02-23T04:25:05;101605.06;;;13.61;65.35
61026;BME280;46911;32.650;-16.902;2023-02-23T04:27:11;101579.31;;;13.46;65.38
61026;BME280;46911;32.650;-16.902;2023-02-23T04:29:12;101580.25;;;13.45;65.26
61026;BME280;46911;32.650;-16.902;2023-02-23T04:31:18;101590.72;;;13.62;65.40
61026;BME280;46911;32.650;-16.902;2023-02-23T04:33:20;101600.13;;;13.55;65.54
61026;BME280;46911;32.650;-16.902;2023-02-23T04:35:24;101583.28;;;13.53;66.08
61026;BME280;46911;32.650;-16.902;2023-02-23T04:37:32;101598.09;;;13.59;65.98
61026;BME280;46911;32.650;-16.902;2023-02-23T04:39:38;101573.94;;;13.46;66.09
61026;BME280;46911;32.650;-16.902;2023-02-23T04:41:39;101591.88;;;13.58;65.90
61026;BME280;46911;32.650;-16.902;2023-02-23T04:43:43;101573.94;;;13.46;65.85
61026;BME280;46911;32.650;-16.902;2023-02-23T04:45:46;101588.25;;;13.59;65.94
61026;BME280;46911;32.650;-16.902;2023-02-23T04:47:47;101591.38;;;13.66;65.61
61026;BME280;46911;32.650;-16.902;2023-02-23T04:49:48;101558.88;;;13.58;65.49
61026;BME280;46911;32.650;-16.902;2023-02-23T04:51:52;101577.13;;;13.78;65.63
61026;BME280;46911;32.650;-16.902;2023-02-23T04:53:53;101574.34;;;13.80;65.52
61026;BME280;46911;32.650;-16.902;2023-02-23T04:55:54;101584.56;;;13.87;65.66
61026;BME280;46911;32.650;-16.902;2023-02-23T04:58:02;101526.81;;;13.69;65.68
61026;BME280;46911;32.650;-16.902;2023-02-23T05:00:03;101551.53;;;13.87;65.50
61026;BME280;46911;32.650;-16.902;2023-02-23T05:02:04;101556.34;;;13.82;65.73
61026;BME280;46911;32.650;-16.902;2023-02-23T05:04:06;101561.81;;;13.80;65.68
61026;BME280;46911;32.650;-16.902;2023-02-23T05:06:06;101566.06;;;13.83;65.54
61026;BME280;46911;32.650;-16.902;2023-02-23T05:08:08;101567.34;;;13.77;65.50
61026;BME280;46911;32.650;-16.902;2023-02-23T05:10:09;101547.25;;;13.57;65.60
61026;BME280;46911;32.650;-16.902;2023-02-23T05:12:10;101557.13;;;13.56;66.00
61026;BME280;46911;32.650;-16.902;2023-02-23T05:14:16;101577.41;;;13.61;66.13
61026;BME280;46911;32.650;-16.902;2023-02-23T05:16:17;101557.75;;;13.47;66.54
61026;BME280;46911;32.650;-16.902;2023-02-23T05:18:18;101572.06;;;13.61;66.79
61026;BME280;46911;32.650;-16.902;2023-02-23T05:20:22;101564.75;;;13.63;67.02
61026;BME280;46911;32.650;-16.902;2023-02-23T05:22:23;101567.44;;;13.63;67.29
61026;BME280;46911;32.650;-16.902;2023-02-23T05:24:27;101567.13;;;13.67;67.52
61026;BME280;46911;32.650;-16.902;2023-02-23T05:26:27;101540.94;;;13.58;67.78
61026;BME280;46911;32.650;-16.902;2023-02-23T05:28:29;101563.06;;;13.75;67.46
61026;BME280;46911;32.650;-16.902;2023-02-23T05:30:33;101565.44;;;13.79;67.46
61026;BME280;46911;32.650;-16.902;2023-02-23T05:32:37;101560.94;;;13.80;67.60
61026;BME280;46911;32.650;-16.902;2023-02-23T05:34:38;101565.56;;;13.90;67.20
61026;BME280;46911;32.650;-16.902;2023-02-23T05:36:41;101552.38;;;13.87;66.78
61026;BME280;46911;32.650;-16.902;2023-02-23T05:38:43;101539.81;;;13.88;66.78
61026;BME280;46911;32.650;-16.902;2023-02-23T05:40:46;101531.75;;;13.88;66.49
61026;BME280;46911;32.650;-16.902;2023-02-23T05:42:59;101533.25;;;13.92;66.49
61026;BME280;46911;32.650;-16.902;2023-02-23T05:45:03;101536.28;;;13.87;66.23
61026;BME280;46911;32.650;-16.902;2023-02-23T05:47:05;101566.00;;;13.97;66.42
61026;BME280;46911;32.650;-16.902;2023-02-23T05:49:09;101574.69;;;13.88;66.52
61026;BME280;46911;32.650;-16.902;2023-02-23T05:51:14;101562.44;;;13.71;67.09
61026;BME280;46911;32.650;-16.902;2023-02-23T05:53:20;101582.38;;;13.80;67.17
61026;BME280;46911;32.650;-16.902;2023-02-23T05:55:23;101572.28;;;13.70;67.37
61026;BME280;46911;32.650;-16.902;2023-02-23T05:57:25;101579.38;;;13.71;67.49
61026;BME280;46911;32.650;-16.902;2023-02-23T05:59:28;101554.75;;;13.52;67.57
61026;BME280;46911;32.650;-16.902;2023-02-23T06:01:29;101574.84;;;13.59;67.65
61026;BME280;46911;32.650;-16.902;2023-02-23T06:03:33;101561.28;;;13.48;67.99
61026;BME280;46911;32.650;-16.902;2023-02-23T06:05:39;101561.38;;;13.46;68.21
61026;BME280;46911;32.650;-16.902;2023-02-23T06:07:42;101561.50;;;13.45;68.00
61026;BME280;46911;32.650;-16.902;2023-02-23T06:09:46;101582.00;;;13.59;67.82
61026;BME280;46911;32.650;-16.902;2023-02-23T06:11:49;101576.47;;;13.62;67.67
61026;BME280;46911;32.650;-16.902;2023-02-23T06:13:54;101582.28;;;13.68;67.69
61026;BME280;46911;32.650;-16.902;2023-02-23T06:16:03;101560.44;;;13.60;67.56
61026;BME280;46911;32.650;-16.902;2023-02-23T06:18:05;101582.50;;;13.78;67.52
61026;BME280;46911;32.650;-16.902;2023-02-23T06:20:12;101566.81;;;13.72;67.40
61026;BME280;46911;32.650;-16.902;2023-02-23T06:22:15;101580.81;;;13.90;66.86
61026;BME280;46911;32.650;-16.902;2023-02-23T06:24:17;101580.59;;;13.93;66.93
61026;BME280;46911;32.650;-16.902;2023-02-23T06:26:19;101584.03;;;13.95;66.46
61026;BME280;46911;32.650;-16.902;2023-02-23T06:28:20;101576.94;;;13.94;66.40
61026;BME280;46911;32.650;-16.902;2023-02-23T06:30:21;101582.63;;;14.02;66.26
61026;BME280;46911;32.650;-16.902;2023-02-23T06:32:22;101581.34;;;14.08;66.14
61026;BME280;46911;32.650;-16.902;2023-02-23T06:34:24;101579.53;;;14.09;65.99
61026;BME280;46911;32.650;-16.902;2023-02-23T06:36:25;101587.16;;;14.15;65.71
61026;BME280;46911;32.650;-16.902;2023-02-23T06:38:29;101569.56;;;14.11;65.54
61026;BME280;46911;32.650;-16.902;2023-02-23T06:40:31;101582.97;;;14.23;65.37
61026;BME280;46911;32.650;-16.902;2023-02-23T06:42:32;101572.34;;;14.22;65.00
61026;BME280;46911;32.650;-16.902;2023-02-23T06:44:35;101585.31;;;14.28;64.17
61026;BME280;46911;32.650;-16.902;2023-02-23T06:46:39;101590.16;;;14.36;63.11
61026;BME280;46911;32.650;-16.902;2023-02-23T06:48:43;101595.97;;;14.43;62.81
61026;BME280;46911;32.650;-16.902;2023-02-23T06:50:49;101595.22;;;14.40;62.92
61026;BME280;46911;32.650;-16.902;2023-02-23T06:52:50;101600.38;;;14.44;63.07
61026;BME280;46911;32.650;-16.902;2023-02-23T06:54:51;101599.06;;;14.49;63.10
61026;BME280;46911;32.650;-16.902;2023-02-23T06:56:52;101585.56;;;14.38;63.15
61026;BME280;46911;32.650;-16.902;2023-02-23T06:58:55;101599.50;;;14.56;63.21
61026;BME280;46911;32.650;-16.902;2023-02-23T07:01:01;101577.94;;;14.45;63.35
61026;BME280;46911;32.650;-16.902;2023-02-23T07:03:02;101571.06;;;14.40;63.11
61026;BME280;46911;32.650;-16.902;2023-02-23T07:05:05;101587.78;;;14.44;63.33
61026;BME280;46911;32.650;-16.902;2023-02-23T07:07:10;101575.03;;;14.35;63.44
61026;BME280;46911;32.650;-16.902;2023-02-23T07:09:12;101591.25;;;14.33;63.96
61026;BME280;46911;32.650;-16.902;2023-02-23T07:11:15;101604.66;;;14.33;64.03
61026;BME280;46911;32.650;-16.902;2023-02-23T07:13:16;101604.88;;;14.30;64.19
61026;BME280;46911;32.650;-16.902;2023-02-23T07:15:17;101602.00;;;14.20;64.08
61026;BME280;46911;32.650;-16.902;2023-02-23T07:17:21;101613.78;;;14.18;64.51
61026;BME280;46911;32.650;-16.902;2023-02-23T07:19:24;101593.91;;;14.07;64.79
61026;BME280;46911;32.650;-16.902;2023-02-23T07:21:25;101605.19;;;14.13;64.64
61026;BME280;46911;32.650;-16.902;2023-02-23T07:23:26;101622.78;;;14.17;64.63
61026;BME280;46911;32.650;-16.902;2023-02-23T07:25:30;101600.34;;;14.05;64.72
61026;BME280;46911;32.650;-16.902;2023-02-23T07:27:37;101622.47;;;14.21;64.91
61026;BME280;46911;32.650;-16.902;2023-02-23T07:29:41;101621.63;;;14.21;64.68
61026;BME280;46911;32.650;-16.902;2023-02-23T07:31:42;101598.31;;;14.09;64.58
61026;BME280;46911;32.650;-16.902;2023-02-23T07:33:48;101611.28;;;14.15;65.24
61026;BME280;46911;32.650;-16.902;2023-02-23T07:35:54;101615.59;;;14.17;65.29
61026;BME280;46911;32.650;-16.902;2023-02-23T07:37:58;101628.81;;;14.33;65.47
61026;BME280;46911;32.650;-16.902;2023-02-23T07:40:02;101621.31;;;14.38;65.65
61026;BME280;46911;32.650;-16.902;2023-02-23T07:42:03;101620.56;;;14.36;65.66
61026;BME280;46911;32.650;-16.902;2023-02-23T07:44:04;101597.47;;;14.21;66.54
61026;BME280;46911;32.650;-16.902;2023-02-23T07:46:08;101623.34;;;14.35;66.81
61026;BME280;46911;32.650;-16.902;2023-02-23T07:48:11;101631.50;;;14.33;67.21
61026;BME280;46911;32.650;-16.902;2023-02-23T07:50:16;101612.91;;;14.17;67.43
61026;BME280;46911;32.650;-16.902;2023-02-23T07:52:17;101626.00;;;14.35;67.66
61026;BME280;46911;32.650;-16.902;2023-02-23T07:54:20;101607.25;;;14.22;67.63
61026;BME280;46911;32.650;-16.902;2023-02-23T07:56:27;101626.13;;;14.33;67.74
61026;BME280;46911;32.650;-16.902;2023-02-23T07:58:28;101617.13;;;14.34;67.46
61026;BME280;46911;32.650;-16.902;2023-02-23T08:00:31;101608.31;;;14.32;67.50
61026;BME280;46911;32.650;-16.902;2023-02-23T08:02:34;101604.78;;;14.32;67.63
61026;BME280;46911;32.650;-16.902;2023-02-23T08:04:35;101627.09;;;14.45;67.78
61026;BME280;46911;32.650;-16.902;2023-02-23T08:06:36;101601.97;;;14.33;67.67
61026;BME280;46911;32.650;-16.902;2023-02-23T08:08:43;101615.94;;;14.38;68.22
61026;BME280;46911;32.650;-16.902;2023-02-23T08:10:47;101617.25;;;14.46;68.09
61026;BME280;46911;32.650;-16.902;2023-02-23T08:12:48;101621.63;;;14.47;68.37
61026;BME280;46911;32.650;-16.902;2023-02-23T08:14:49;101638.03;;;14.55;68.93
61026;BME280;46911;32.650;-16.902;2023-02-23T08:16:52;101643.22;;;14.58;69.21
61026;BME280;46911;32.650;-16.902;2023-02-23T08:18:55;101614.00;;;14.40;69.10
61026;BME280;46911;32.650;-16.902;2023-02-23T08:21:01;101612.06;;;14.43;69.38
61026;BME280;46911;32.650;-16.902;2023-02-23T08:23:05;101636.13;;;14.57;69.27
61026;BME280;46911;32.650;-16.902;2023-02-23T08:25:07;101635.16;;;14.58;69.08
61026;BME280;46911;32.650;-16.902;2023-02-23T08:27:10;101617.75;;;14.51;69.11
61026;BME280;46911;32.650;-16.902;2023-02-23T08:29:12;101630.13;;;14.66;69.05
61026;BME280;46911;32.650;-16.902;2023-02-23T08:31:18;101638.09;;;14.68;68.50
61026;BME280;46911;32.650;-16.902;2023-02-23T08:33:22;101636.47;;;14.65;68.73
61026;BME280;46911;32.650;-16.902;2023-02-23T08:35:24;101615.84;;;14.53;68.47
61026;BME280;46911;32.650;-16.902;2023-02-23T08:37:25;101629.69;;;14.60;68.38
61026;BME280;46911;32.650;-16.902;2023-02-23T08:39:33;101648.81;;;14.81;67.99
61026;BME280;46911;32.650;-16.902;2023-02-23T08:41:38;101627.53;;;14.78;67.63
61026;BME280;46911;32.650;-16.902;2023-02-23T08:43:42;101636.44;;;14.91;66.93
61026;BME280;46911;32.650;-16.902;2023-02-23T08:45:43;101620.53;;;14.88;65.71
61026;BME280;46911;32.650;-16.902;2023-02-23T08:47:43;101646.72;;;15.10;65.61
61026;BME280;46911;32.650;-16.902;2023-02-23T08:49:44;101639.50;;;15.23;65.08
61026;BME280;46911;32.650;-16.902;2023-02-23T08:51:45;101650.19;;;15.36;64.42
61026;BME280;46911;32.650;-16.902;2023-02-23T08:53:46;101631.69;;;15.45;64.01
61026;BME280;46911;32.650;-16.902;2023-02-23T08:55:57;101635.22;;;15.69;62.59
61026;BME280;46911;32.650;-16.902;2023-02-23T08:58:00;101644.50;;;15.89;61.54
61026;BME280;46911;32.650;-16.902;2023-02-23T09:00:08;101632.50;;;15.82;61.51
61026;BME280;46911;32.650;-16.902;2023-02-23T09:02:18;101644.06;;;16.07;61.05
61026;BME280;46911;32.650;-16.902;2023-02-23T09:04:22;101644.13;;;16.18;60.11
61026;BME280;46911;32.650;-16.902;2023-02-23T09:06:24;101631.88;;;16.14;59.63
61026;BME280;46911;32.650;-16.902;2023-02-23T09:08:25;101629.06;;;16.27;59.95
61026;BME280;46911;32.650;-16.902;2023-02-23T09:10:26;101622.13;;;16.36;59.96
61026;BME280;46911;32.650;-16.902;2023-02-23T09:12:28;101642.34;;;16.64;59.60
61026;BME280;46911;32.650;-16.902;2023-02-23T09:14:29;101642.50;;;16.85;59.09
61026;BME280;46911;32.650;-16.902;2023-02-23T09:16:31;101621.69;;;16.99;57.94
61026;BME280;46911;32.650;-16.902;2023-02-23T09:18:35;101624.97;;;17.14;56.00
61026;BME280;46911;32.650;-16.902;2023-02-23T09:20:40;101631.47;;;17.22;56.27
61026;BME280;46911;32.650;-16.902;2023-02-23T09:22:42;101623.34;;;17.34;56.73
61026;BME280;46911;32.650;-16.902;2023-02-23T09:24:52;101633.97;;;17.47;56.02
61026;BME280;46911;32.650;-16.902;2023-02-23T09:26:56;101635.91;;;17.88;54.30
61026;BME280;46911;32.650;-16.902;2023-02-23T09:28:59;101630.56;;;18.10;51.51
61026;BME280;46911;32.650;-16.902;2023-02-23T09:31:09;101629.53;;;18.32;51.47
61026;BME280;46911;32.650;-16.902;2023-02-23T09:33:11;101635.09;;;18.61;51.21
61026;BME280;46911;32.650;-16.902;2023-02-23T09:35:13;101624.09;;;18.74;51.87
61026;BME280;46911;32.650;-16.902;2023-02-23T09:37:17;101636.16;;;19.01;51.65
61026;BME280;46911;32.650;-16.902;2023-02-23T09:39:23;101636.56;;;19.37;50.96
61026;BME280;46911;32.650;-16.902;2023-02-23T09:46:07;101629.78;;;19.12;50.47
61026;BME280;46911;32.650;-16.902;2023-02-23T09:48:13;101629.88;;;19.70;49.44
61026;BME280;46911;32.650;-16.902;2023-02-23T09:50:23;101638.25;;;20.93;47.42
61026;BME280;46911;32.650;-16.902;2023-02-23T09:52:31;101629.59;;;22.34;44.26
61026;BME280;46911;32.650;-16.902;2023-02-23T09:54:41;101623.88;;;22.98;42.43
61026;BME280;46911;32.650;-16.902;2023-02-23T09:56:45;101631.03;;;21.76;42.85
61026;BME280;46911;32.650;-16.902;2023-02-23T09:58:49;101631.63;;;22.05;42.50
61026;BME280;46911;32.650;-16.902;2023-02-23T10:01:27;101633.31;;;20.79;48.42
61026;BME280;46911;32.650;-16.902;2023-02-23T10:03:34;101627.75;;;21.08;48.79
61026;BME280;46911;32.650;-16.902;2023-02-23T10:05:41;101619.81;;;20.69;48.93
61026;BME280;46911;32.650;-16.902;2023-02-23T10:07:51;101632.34;;;22.07;46.76
61026;BME280;46911;32.650;-16.902;2023-02-23T10:21:45;101618.75;;;22.07;41.29
61026;BME280;46911;32.650;-16.902;2023-02-23T10:24:02;101630.03;;;21.13;43.53
61026;BME280;46911;32.650;-16.902;2023-02-23T10:26:06;101637.75;;;21.35;43.50
61026;BME280;46911;32.650;-16.902;2023-02-23T10:28:16;101630.84;;;21.13;43.92
61026;BME280;46911;32.650;-16.902;2023-02-23T10:30:25;101618.25;;;20.94;44.00
61026;BME280;46911;32.650;-16.902;2023-02-23T10:32:49;101623.84;;;20.93;43.97
61026;BME280;46911;32.650;-16.902;2023-02-23T10:34:54;101646.28;;;21.13;43.44
61026;BME280;46911;32.650;-16.902;2023-02-23T10:36:59;101634.91;;;21.27;43.46
61026;BME280;46911;32.650;-16.902;2023-02-23T10:39:04;101623.34;;;20.69;45.39
61026;BME280;46911;32.650;-16.902;2023-02-23T10:41:11;101640.31;;;21.09;44.81
61026;BME280;46911;32.650;-16.902;2023-02-23T10:43:12;101635.84;;;21.82;43.88
61026;BME280;46911;32.650;-16.902;2023-02-23T10:45:16;101619.53;;;21.82;43.06
61026;BME280;46911;32.650;-16.902;2023-02-23T10:47:32;101626.53;;;21.66;43.69
61026;BME280;46911;32.650;-16.902;2023-02-23T10:49:45;101620.47;;;21.09;44.46
61026;BME280;46911;32.650;-16.902;2023-02-23T10:51:51;101614.78;;;20.74;44.36
61026;BME280;46911;32.650;-16.902;2023-02-23T10:53:57;101625.28;;;20.39;44.63
61026;BME280;46911;32.650;-16.902;2023-02-23T10:58:14;101625.78;;;19.96;45.32
61026;BME280;46911;32.650;-16.902;2023-02-23T11:00:25;101630.63;;;19.82;46.54
61026;BME280;46911;32.650;-16.902;2023-02-23T11:02:30;101608.78;;;20.23;45.19
61026;BME280;46911;32.650;-16.902;2023-02-23T11:04:34;101620.66;;;20.60;44.60
61026;BME280;46911;32.650;-16.902;2023-02-23T11:06:38;101618.75;;;20.80;44.23
61026;BME280;46911;32.650;-16.902;2023-02-23T11:08:40;101615.38;;;21.23;43.87
61026;BME280;46911;32.650;-16.902;2023-02-23T11:10:43;101604.09;;;20.63;43.94
61026;BME280;46911;32.650;-16.902;2023-02-23T11:12:54;101614.66;;;21.21;42.61
61026;BME280;46911;32.650;-16.902;2023-02-23T11:14:56;101598.22;;;21.23;41.82
61026;BME280;46911;32.650;-16.902;2023-02-23T11:17:00;101614.31;;;21.88;40.79
61026;BME280;46911;32.650;-16.902;2023-02-23T11:19:02;101613.59;;;21.78;41.84
61026;BME280;46911;32.650;-16.902;2023-02-23T11:21:12;101601.66;;;22.42;40.42
61026;BME280;46911;32.650;-16.902;2023-02-23T11:23:26;101613.66;;;22.57;39.96
61026;BME280;46911;32.650;-16.902;2023-02-23T11:25:34;101614.44;;;22.23;41.53
61026;BME280;46911;32.650;-16.902;2023-02-23T11:27:38;101615.38;;;22.14;41.36
61026;BME280;46911;32.650;-16.902;2023-02-23T11:29:45;101610.13;;;23.07;40.55
61026;BME280;46911;32.650;-16.902;2023-02-23T11:31:52;101600.94;;;22.66;40.58
61026;BME280;46911;32.650;-16.902;2023-02-23T11:33:54;101603.94;;;24.39;37.68
61026;BME280;46911;32.650;-16.902;2023-02-23T11:36:12;101615.94;;;26.18;33.87